createdAt,value
2018-04-28T00:02:47.893Z,2.4
2018-04-28T00:05:47.852Z,2.3
2018-04-28T00:08:47.845Z,2.4
2018-04-28T00:11:47.655Z,2.1
2018-04-28T00:14:47.843Z,2.1
2018-04-28T00:17:47.807Z,2
2018-04-28T00:20:47.713Z,3.2
2018-04-28T00:23:47.810Z,2.7
2018-04-28T00:26:47.651Z,2.6
2018-04-28T00:29:47.763Z,2.4
2018-04-28T00:32:47.869Z,2.4
2018-04-28T00:35:47.677Z,2.2
2018-04-28T00:38:47.825Z,2.5
2018-04-28T00:41:47.850Z,2.2
2018-04-28T00:44:47.704Z,2.3
2018-04-28T00:47:47.786Z,2.2
2018-04-28T00:50:47.647Z,2.5
2018-04-28T00:53:47.843Z,2.5
2018-04-28T00:56:47.832Z,2.1
2018-04-28T00:59:47.684Z,2.2
2018-04-28T01:02:47.803Z,1.9
2018-04-28T01:05:47.961Z,2.5
2018-04-28T01:08:48.104Z,2.1
2018-04-28T01:11:47.977Z,2
2018-04-28T01:14:47.794Z,2
2018-04-28T01:17:48.076Z,1.9
2018-04-28T01:20:48.119Z,1.9
2018-04-28T01:23:47.605Z,1.9
2018-04-28T01:26:47.812Z,2.3
2018-04-28T01:29:47.865Z,2.2
2018-04-28T01:32:47.910Z,1.9
2018-04-28T01:35:47.862Z,2
2018-04-28T01:38:47.664Z,2
2018-04-28T01:41:47.656Z,2.1
2018-04-28T01:44:47.738Z,2
2018-04-28T01:47:47.821Z,2
2018-04-28T01:50:48.051Z,1.9
2018-04-28T01:53:47.858Z,2.3
2018-04-28T01:56:48.054Z,2
2018-04-28T01:59:48.019Z,1.9
2018-04-28T02:02:47.863Z,1.8
2018-04-28T02:05:48.022Z,1.8
2018-04-28T02:08:47.868Z,1.8
2018-04-28T02:11:48.210Z,2.1
2018-04-28T02:14:48.590Z,1.9
2018-04-28T02:17:48.013Z,2
2018-04-28T02:20:48.051Z,2
2018-04-28T02:23:47.807Z,2.5
2018-04-28T02:26:47.838Z,2.1
2018-04-28T02:29:48.106Z,1.9
2018-04-28T02:32:47.699Z,2
2018-04-28T02:35:47.985Z,1.8
2018-04-28T02:38:48.285Z,1.7
2018-04-28T02:41:47.875Z,1.7
2018-04-28T02:44:48.077Z,1.7
2018-04-28T02:47:48.075Z,1.9
2018-04-28T02:50:47.710Z,1.9
2018-04-28T02:53:47.958Z,2.3
2018-04-28T02:56:47.714Z,2.5
2018-04-28T02:59:48.016Z,2.2
2018-04-28T03:02:47.875Z,1.9
2018-04-28T03:05:47.808Z,2
2018-04-28T03:08:47.883Z,1.8
2018-04-28T03:11:47.616Z,1.8
2018-04-28T03:14:47.813Z,1.8
2018-04-28T03:17:47.554Z,1.7
2018-04-28T03:20:47.767Z,1.8
2018-04-28T03:23:47.799Z,2.1
2018-04-28T03:26:47.922Z,1.9
2018-04-28T03:29:47.636Z,1.8
2018-04-28T03:32:47.637Z,1.7
2018-04-28T03:35:47.822Z,1.8
2018-04-28T03:38:47.749Z,1.8
2018-04-28T03:41:47.625Z,1.6
2018-04-28T03:44:47.652Z,1.8
2018-04-28T03:47:47.740Z,1.7
2018-04-28T03:50:47.622Z,1.8
2018-04-28T03:53:47.775Z,1.8
2018-04-28T03:56:47.756Z,1.7
2018-04-28T03:59:47.649Z,1.7
2018-04-28T04:02:47.687Z,1.7
2018-04-28T04:05:47.765Z,1.6
2018-04-28T04:08:47.806Z,2
2018-04-28T04:11:47.622Z,1.9
2018-04-28T04:14:47.677Z,1.9
2018-04-28T04:17:47.531Z,1.8
2018-04-28T04:20:47.697Z,1.8
2018-04-28T04:23:47.630Z,1.8
2018-04-28T04:26:47.843Z,1.7
2018-04-28T04:29:47.779Z,1.8
2018-04-28T04:32:47.645Z,1.8
2018-04-28T04:35:47.719Z,1.8
2018-04-28T04:38:47.730Z,1.7
2018-04-28T04:41:47.782Z,1.7
2018-04-28T04:44:47.829Z,1.7
2018-04-28T04:47:47.744Z,1.7
2018-04-28T04:50:47.615Z,1.7
2018-04-28T04:53:47.810Z,1.9
2018-04-28T04:56:47.704Z,2.1
2018-04-28T04:59:47.903Z,2
2018-04-28T05:02:47.970Z,1.7
2018-04-28T05:05:47.594Z,1.7
2018-04-28T05:08:47.705Z,1.7
2018-04-28T05:11:47.461Z,1.8
2018-04-28T05:14:47.755Z,1.7
2018-04-28T05:17:47.645Z,1.8
2018-04-28T05:20:47.702Z,1.6
2018-04-28T05:23:47.620Z,1.6
2018-04-28T05:26:47.688Z,1.6
2018-04-28T05:29:47.718Z,1.9
2018-04-28T05:32:48.128Z,1.8
2018-04-28T05:35:47.790Z,1.7
2018-04-28T05:38:47.711Z,1.6
2018-04-28T05:41:47.669Z,1.6
2018-04-28T05:44:47.778Z,1.7
2018-04-28T05:47:47.657Z,1.6
2018-04-28T05:50:47.643Z,1.6
2018-04-28T05:53:47.664Z,1.6
2018-04-28T05:56:47.822Z,1.6
2018-04-28T05:59:47.729Z,1.6
2018-04-28T06:02:47.718Z,1.8
2018-04-28T06:05:47.887Z,2.1
2018-04-28T06:08:47.573Z,1.9
2018-04-28T06:11:47.682Z,1.7
2018-04-28T06:14:47.709Z,2.2
2018-04-28T06:17:47.647Z,2.2
2018-04-28T06:20:47.586Z,2.1
2018-04-28T06:23:47.719Z,1.9
2018-04-28T06:26:47.603Z,1.7
2018-04-28T06:29:47.727Z,1.6
2018-04-28T06:32:47.731Z,1.6
2018-04-28T06:35:48.612Z,1.5
2018-04-28T06:38:47.700Z,1.6
2018-04-28T06:41:47.635Z,1.6
2018-04-28T06:44:47.809Z,1.6
2018-04-28T06:47:47.545Z,1.9
2018-04-28T06:50:47.733Z,1.8
2018-04-28T06:53:47.508Z,1.8
2018-04-28T06:56:47.820Z,2
2018-04-28T06:59:47.639Z,2.3
2018-04-28T07:02:47.576Z,1.9
2018-04-28T07:05:47.545Z,1.7
2018-04-28T07:08:47.643Z,1.6
2018-04-28T07:11:47.532Z,1.6
2018-04-28T07:14:47.831Z,2
2018-04-28T07:17:47.521Z,2.1
2018-04-28T07:20:47.626Z,2
2018-04-28T07:23:47.594Z,1.8
2018-04-28T07:26:47.791Z,2.2
2018-04-28T07:29:47.666Z,2.8
2018-04-28T07:32:47.699Z,2.5
2018-04-28T07:35:47.562Z,2.4
2018-04-28T07:38:47.695Z,2.1
2018-04-28T07:41:47.637Z,2.2
2018-04-28T07:44:47.935Z,1.9
2018-04-28T07:47:47.572Z,3.6
2018-04-28T07:50:47.581Z,3
2018-04-28T07:53:47.680Z,3.1
2018-04-28T07:56:47.731Z,2.4
2018-04-28T07:59:47.724Z,3
2018-04-28T08:02:47.547Z,3.2
2018-04-28T08:05:47.723Z,2.8
2018-04-28T08:08:47.587Z,2.4
2018-04-28T08:11:47.575Z,2.6
2018-04-28T08:14:47.648Z,4.3
2018-04-28T08:17:47.559Z,3.1
2018-04-28T08:20:48.552Z,2.4
2018-04-28T08:23:47.655Z,2.8
2018-04-28T08:26:47.569Z,3.2
2018-04-28T08:29:47.649Z,2.6
2018-04-28T08:32:47.722Z,2.2
2018-04-28T08:35:47.541Z,2
2018-04-28T08:38:47.581Z,2.3
2018-04-28T08:41:47.518Z,2
2018-04-28T08:44:47.555Z,1.8
2018-04-28T08:47:47.773Z,2.2
2018-04-28T08:50:47.454Z,1.9
2018-04-28T08:53:47.680Z,1.9
2018-04-28T08:56:47.590Z,1.8
2018-04-28T08:59:47.511Z,1.7
2018-04-28T09:02:47.535Z,2.8
2018-04-28T09:05:47.764Z,2.6
2018-04-28T09:08:47.478Z,2.2
2018-04-28T09:11:47.710Z,2.9
2018-04-28T09:14:47.651Z,2.6
2018-04-28T09:17:47.710Z,2.5
2018-04-28T09:20:47.672Z,3
2018-04-28T09:23:50.328Z,3.9
2018-04-28T09:26:48.004Z,3.9
2018-04-28T09:29:47.482Z,3.6
2018-04-28T09:32:47.715Z,3.9
2018-04-28T09:35:47.733Z,5.3
2018-04-28T09:38:47.666Z,4.6
2018-04-28T09:41:47.345Z,4.9
2018-04-28T09:44:47.677Z,5.6
2018-04-28T09:47:47.947Z,5
2018-04-28T09:50:47.576Z,6.1
2018-04-28T09:53:47.605Z,5.1
2018-04-28T09:56:47.956Z,5
2018-04-28T09:59:47.457Z,4.4
2018-04-28T10:02:47.599Z,4
2018-04-28T10:05:47.661Z,4.3
2018-04-28T10:08:47.592Z,4.5
2018-04-28T10:11:47.471Z,5
2018-04-28T10:14:47.405Z,5
2018-04-28T10:17:47.518Z,3.9
2018-04-28T10:20:47.560Z,4.7
2018-04-28T10:23:47.519Z,4.6
2018-04-28T10:26:47.556Z,11.8
2018-04-28T10:29:47.408Z,9.9
2018-04-28T10:32:47.606Z,10.2
2018-04-28T10:35:47.525Z,9.9
2018-04-28T10:38:47.791Z,9.8
2018-04-28T10:41:47.753Z,8.1
2018-04-28T10:44:47.638Z,8.4
2018-04-28T10:47:47.566Z,7.1
2018-04-28T10:50:47.706Z,8
2018-04-28T10:53:48.368Z,8.6
2018-04-28T10:56:47.563Z,6.6
2018-04-28T10:59:47.615Z,6
2018-04-28T11:02:47.549Z,4.7
2018-04-28T11:05:47.398Z,4.3
2018-04-28T11:08:47.512Z,6.6
2018-04-28T11:11:47.419Z,5.6
2018-04-28T11:14:47.603Z,6.1
2018-04-28T11:17:47.481Z,7.4
2018-04-28T11:20:47.655Z,6.7
2018-04-28T11:23:47.591Z,4.9
2018-04-28T11:26:47.466Z,4.4
2018-04-28T11:29:47.772Z,3.8
2018-04-28T11:32:47.895Z,3.7
2018-04-28T11:35:47.538Z,4.7
2018-04-28T11:38:47.513Z,5.1
2018-04-28T11:41:47.491Z,4.1
2018-04-28T11:44:47.539Z,3.9
2018-04-28T11:47:47.865Z,4.4
2018-04-28T11:50:47.609Z,5.1
2018-04-28T11:53:47.596Z,4.9
2018-04-28T11:56:47.672Z,4.8
2018-04-28T11:59:47.537Z,4.6
2018-04-28T12:02:47.600Z,5
2018-04-28T12:05:48.425Z,3.9
2018-04-28T12:08:47.382Z,3.9
2018-04-28T12:11:47.516Z,3.5
2018-04-28T12:14:47.603Z,4.4
2018-04-28T12:17:48.011Z,5
2018-04-28T12:20:47.448Z,3.6
2018-04-28T12:23:47.645Z,3.8
2018-04-28T12:26:47.605Z,3.3
2018-04-28T12:29:48.637Z,3
2018-04-28T12:32:47.554Z,3.7
2018-04-28T12:35:47.550Z,3.5
2018-04-28T12:38:47.543Z,3.1
2018-04-28T12:41:47.587Z,3
2018-04-28T12:44:47.754Z,2.9
2018-04-28T12:47:47.437Z,3.4
2018-04-28T12:50:48.450Z,2.9
2018-04-28T12:53:47.529Z,3.1
2018-04-28T12:56:47.462Z,2.8
2018-04-28T12:59:47.478Z,2.9
2018-04-28T13:02:47.454Z,3.2
2018-04-28T13:05:47.451Z,4.7
2018-04-28T13:08:47.470Z,4.3
2018-04-28T13:11:47.644Z,3.5
2018-04-28T13:14:47.492Z,3.7
2018-04-28T13:17:47.526Z,4.4
2018-04-28T13:20:47.645Z,4.6
2018-04-28T13:23:47.433Z,4.1
2018-04-28T13:26:47.477Z,3.8
2018-04-28T13:29:47.434Z,3.5
2018-04-28T13:32:47.469Z,3.2
2018-04-28T13:35:47.488Z,2.7
2018-04-28T13:38:47.636Z,2.5
2018-04-28T13:41:47.482Z,2.5
2018-04-28T13:44:47.628Z,2.7
2018-04-28T13:47:47.619Z,2.5
2018-04-28T13:50:47.652Z,2.3
2018-04-28T13:53:47.490Z,2.1
2018-04-28T13:56:47.522Z,3.1
2018-04-28T13:59:47.531Z,3.5
2018-04-28T14:02:47.396Z,3.4
2018-04-28T14:05:47.422Z,2.9
2018-04-28T14:08:47.461Z,2.7
2018-04-28T14:11:47.603Z,2.7
2018-04-28T14:14:47.559Z,3
2018-04-28T14:17:47.639Z,3.1
2018-04-28T14:20:47.577Z,3
2018-04-28T14:23:47.419Z,2.8
2018-04-28T14:26:47.599Z,2.6
2018-04-28T14:29:47.996Z,3.2
2018-04-28T14:32:47.885Z,3.4
2018-04-28T14:35:48.375Z,3.1
2018-04-28T14:38:47.399Z,3.6
2018-04-28T14:41:47.514Z,3.8
2018-04-28T14:44:47.714Z,5
2018-04-28T14:47:47.755Z,5.7
2018-04-28T14:50:47.709Z,4.5
2018-04-28T14:53:47.504Z,4.6
2018-04-28T14:56:47.668Z,5.2
2018-04-28T14:59:47.508Z,3.9
2018-04-28T15:02:47.512Z,4.2
2018-04-28T15:05:47.431Z,3.8
2018-04-28T15:08:47.629Z,3.7
2018-04-28T15:11:47.411Z,3.6
2018-04-28T15:14:47.488Z,3.2
2018-04-28T15:17:47.612Z,3.6
2018-04-28T15:20:47.454Z,3.6
2018-04-28T15:23:47.571Z,4.4
2018-04-28T15:26:47.520Z,4.2
2018-04-28T15:29:47.552Z,3.5
2018-04-28T15:32:47.512Z,4.7
2018-04-28T15:35:47.676Z,5
2018-04-28T15:38:47.728Z,6.7
2018-04-28T15:41:47.556Z,5.6
2018-04-28T15:44:47.625Z,4.6
2018-04-28T15:47:47.724Z,4.4
2018-04-28T15:50:47.668Z,4.1
2018-04-28T15:53:49.152Z,4.2
2018-04-28T15:56:47.340Z,4
2018-04-28T15:59:47.563Z,4
2018-04-28T16:02:48.671Z,3.9
2018-04-28T16:05:47.490Z,9.8
2018-04-28T16:08:47.442Z,7.2
2018-04-28T16:11:47.593Z,6.3
2018-04-28T16:14:48.260Z,5
2018-04-28T16:17:47.551Z,6.6
2018-04-28T16:20:47.459Z,5.6
2018-04-28T16:23:47.896Z,5.3
2018-04-28T16:26:47.779Z,5.2
2018-04-28T16:29:47.560Z,5
2018-04-28T16:32:47.477Z,6.5
2018-04-28T16:35:47.427Z,5.6
2018-04-28T16:38:47.395Z,5.5
2018-04-28T16:41:47.345Z,7
2018-04-28T16:44:47.498Z,5.4
2018-04-28T16:47:47.386Z,4.3
2018-04-28T16:50:48.421Z,4.5
2018-04-28T16:53:47.590Z,4.2
2018-04-28T16:56:47.562Z,3.7
2018-04-28T16:59:47.492Z,3.3
2018-04-28T17:02:47.580Z,3.6
2018-04-28T17:05:47.772Z,3.6
2018-04-28T17:08:47.465Z,4.6
2018-04-28T17:11:47.618Z,4.4
2018-04-28T17:14:47.410Z,4.6
2018-04-28T17:17:47.385Z,4.1
2018-04-28T17:20:47.768Z,4.9
2018-04-28T17:23:47.468Z,5.1
2018-04-28T17:26:47.319Z,4.3
2018-04-28T17:29:47.308Z,4.5
2018-04-28T17:32:47.381Z,4.1
2018-04-28T17:35:47.566Z,3.6
2018-04-28T17:38:47.323Z,4.3
2018-04-28T17:41:47.468Z,4.2
2018-04-28T17:44:47.496Z,3.2
2018-04-28T17:47:47.367Z,4.3
2018-04-28T17:50:47.553Z,3.4
2018-04-28T17:53:47.618Z,3.6
2018-04-28T17:56:47.541Z,4.3
2018-04-28T17:59:47.778Z,4.2
2018-04-28T18:02:49.184Z,3.8
2018-04-28T18:05:47.710Z,3.7
2018-04-28T18:08:47.586Z,3.2
2018-04-28T18:11:47.399Z,3.8
2018-04-28T18:14:47.405Z,4.2
2018-04-28T18:17:47.407Z,4.1
2018-04-28T18:20:47.510Z,4.1
2018-04-28T18:23:47.329Z,4
2018-04-28T18:26:47.398Z,3.9
2018-04-28T18:29:47.595Z,3.6
2018-04-28T18:32:47.468Z,4.5
2018-04-28T18:35:47.543Z,3.8
2018-04-28T18:38:47.525Z,3.8
2018-04-28T18:41:47.514Z,3.8
2018-04-28T18:44:47.621Z,3.5
2018-04-28T18:47:47.547Z,4.1
2018-04-28T18:50:47.565Z,4
2018-04-28T18:53:47.432Z,4.6
2018-04-28T18:56:47.492Z,4
2018-04-28T18:59:47.576Z,4.1
2018-04-28T19:02:47.433Z,3.7
2018-04-28T19:05:47.609Z,4.4
2018-04-28T19:08:47.319Z,3.6
2018-04-28T19:11:47.222Z,3.3
2018-04-28T19:14:47.380Z,4.7
2018-04-28T19:17:47.748Z,4.3
2018-04-28T19:21:10.509Z,4
2018-04-28T19:23:47.313Z,3.5
2018-04-28T19:26:47.468Z,4.1
2018-04-28T19:29:47.493Z,4.1
2018-04-28T19:32:47.643Z,4
2018-04-28T19:35:47.572Z,3.5
2018-04-28T19:38:47.368Z,3.4
2018-04-28T19:41:47.332Z,4
2018-04-28T19:44:47.690Z,4.1
2018-04-28T19:47:47.391Z,3.4
2018-04-28T19:50:47.270Z,3.5
2018-04-28T19:53:47.433Z,3.9
2018-04-28T19:56:47.829Z,3.5
2018-04-28T19:59:47.560Z,4
2018-04-28T20:02:47.503Z,3.5
2018-04-28T20:05:47.404Z,4
2018-04-28T20:08:47.651Z,3.7
2018-04-28T20:11:47.356Z,4.3
2018-04-28T20:14:47.544Z,4.9
2018-04-28T20:17:47.594Z,5.9
2018-04-28T20:20:47.381Z,6.1
2018-04-28T20:23:47.695Z,4.9
2018-04-28T20:26:47.561Z,4.8
2018-04-28T20:29:47.767Z,4.4
2018-04-28T20:32:47.497Z,5
2018-04-28T20:35:48.121Z,5.2
2018-04-28T20:38:48.759Z,4.7
2018-04-28T20:41:47.545Z,4.8
2018-04-28T20:44:47.468Z,4.7
2018-04-28T20:47:47.374Z,3.8
2018-04-28T20:50:47.480Z,3.4
2018-04-28T20:53:47.527Z,3.5
2018-04-28T20:56:47.881Z,3.1
2018-04-28T20:59:48.419Z,2.6
2018-04-28T21:02:47.541Z,2.6
2018-04-28T21:05:47.618Z,2.7
2018-04-28T21:08:47.681Z,3.5
2018-04-28T21:11:47.678Z,3.2
2018-04-28T21:14:47.502Z,4.2
2018-04-28T21:17:47.470Z,3.9
2018-04-28T21:20:47.810Z,4.2
2018-04-28T21:23:47.452Z,3.5
2018-04-28T21:26:47.720Z,3.2
2018-04-28T21:29:47.425Z,2.7
2018-04-28T21:32:47.507Z,3.5
2018-04-28T21:35:47.775Z,3.1
2018-04-28T21:38:47.867Z,3.8
2018-04-28T21:41:47.412Z,3.8
2018-04-28T21:44:47.374Z,3.6
2018-04-28T21:47:47.740Z,3.7
2018-04-28T21:50:47.386Z,3.4
2018-04-28T21:53:47.380Z,3.2
2018-04-28T21:56:47.432Z,3
2018-04-28T21:59:47.445Z,2.9
2018-04-28T22:02:47.922Z,3.1
2018-04-28T22:05:47.749Z,2.7
2018-04-28T22:08:47.463Z,3
2018-04-28T22:11:47.561Z,2.8
2018-04-28T22:14:47.411Z,2.8
2018-04-28T22:17:47.327Z,3.4
2018-04-28T22:20:47.831Z,3.2
2018-04-28T22:23:47.233Z,2.8
2018-04-28T22:26:47.799Z,2.4
2018-04-28T22:29:47.486Z,2.5
2018-04-28T22:32:47.458Z,2.5
2018-04-28T22:35:47.646Z,2.5
2018-04-28T22:38:48.001Z,2.7
2018-04-28T22:41:47.520Z,2.5
2018-04-28T22:44:47.509Z,2.6
2018-04-28T22:47:47.361Z,2.9
2018-04-28T22:50:47.527Z,2.5
2018-04-28T22:53:47.410Z,2.7
2018-04-28T22:56:47.381Z,2.4
2018-04-28T22:59:47.602Z,2.7
2018-04-28T23:02:47.364Z,2.5
2018-04-28T23:05:47.397Z,2.3
2018-04-28T23:08:47.297Z,2.2
2018-04-28T23:11:47.630Z,3.2
2018-04-28T23:14:47.359Z,2.9
2018-04-28T23:17:47.247Z,2.3
2018-04-28T23:20:47.091Z,2.3
2018-04-28T23:23:47.405Z,2.6
2018-04-28T23:26:47.398Z,2.5
2018-04-28T23:29:47.462Z,2.2
2018-04-28T23:32:47.308Z,2.1
2018-04-28T23:35:47.452Z,2.7
2018-04-28T23:38:47.505Z,2.3
2018-04-28T23:41:47.823Z,2
2018-04-28T23:44:47.324Z,2
2018-04-28T23:47:47.368Z,2.1
2018-04-28T23:50:47.384Z,2.3
2018-04-28T23:53:47.400Z,2.3
2018-04-28T23:56:47.221Z,2.3
2018-04-28T23:59:47.285Z,2.1
